CheckWX is a tool to help pilots better visualize weather data.  It is not intended as a substitute for an official pre-flight weather briefing.

04:09:25 UTC

KJFK METAR
John F Kennedy International Airport
New York, New York, USA
Current

18 mins ago

KJFK 180351Z 00000KT 9SM -RA FEW012 OVC050 01/01 A2998 RMK AO2 SLP153 P0002 T00110006 $
Observed
Feb-18 @ 03:51 UTC
Visibility
9 SM
Flight Rules
VFR
Conditions
Light Rain
Cloud Levels
  • Few at 1,200' AGL
  • Overcast at 5,000' AGL
Temperature
C / 34°F
Dewpoint
C / 34°F
Humidity
100%
Altimeter
29.98" Hg
Pressure
1015.3 hPa
Current Rain
0.02"
Previous

1 hour ago

KJFK 180251Z 14004KT 10SM -RA FEW022 OVC050 02/M01 A3004 RMK AO2 RAB0157 SLP170 P0000 60000 T00171011 55014 $
Observed
Feb-18 @ 02:51 UTC
Wind
  • 140° at 4 KTS
Visibility
10 SM
Flight Rules
VFR
Conditions
Light Rain
Cloud Levels
  • Few at 2,200' AGL
  • Overcast at 5,000' AGL
Temperature
C / 36°F
Dewpoint
-1°C / 30°F
Humidity
81%
Altimeter
30.04" Hg
Pressure
1017 hPa
Current Rain
0.01"
Previous

2 hours ago

KJFK 180151Z 12007KT 10SM FEW025 OVC055 01/M03 A3000 RMK AO2 SLP160 T00111028 $
Observed
Feb-18 @ 01:51 UTC
Wind
  • 120° at 7 KTS
Visibility
10 SM
Flight Rules
VFR
Cloud Levels
  • Few at 2,500' AGL
  • Overcast at 5,500' AGL
Temperature
C / 34°F
Dewpoint
-3°C / 27°F
Humidity
75%
Altimeter
30" Hg
Pressure
1016 hPa